createdAt,value
2022-09-11T00:00:21.587Z,18.50
2022-09-11T00:02:49.407Z,18.50
2022-09-11T00:05:17.081Z,18.75
2022-09-11T00:07:44.699Z,22.25
2022-09-11T00:10:12.326Z,21.25
2022-09-11T00:12:39.891Z,15.25
2022-09-11T00:15:07.684Z,17.75
2022-09-11T00:17:35.597Z,19.00
2022-09-11T00:20:03.258Z,14.25
2022-09-11T00:22:31.041Z,12.75
2022-09-11T00:24:59.540Z,20.75
2022-09-11T00:27:27.331Z,19.75
2022-09-11T00:29:54.980Z,19.50
2022-09-11T00:32:22.894Z,15.50
2022-09-11T00:34:50.436Z,23.50
2022-09-11T00:37:18.131Z,19.25
2022-09-11T00:39:46.458Z,18.50
2022-09-11T00:42:15.114Z,15.50
2022-09-11T00:44:43.241Z,16.50
2022-09-11T00:47:11.024Z,19.00
2022-09-11T00:49:38.683Z,20.00
2022-09-11T00:52:08.653Z,27.50
2022-09-11T00:54:36.353Z,23.00
2022-09-11T00:57:04.326Z,13.50
2022-09-11T00:59:32.026Z,12.25
2022-09-11T01:02:06.577Z,19.75
2022-09-11T01:04:34.719Z,22.00
2022-09-11T01:07:02.368Z,23.00
2022-09-11T01:09:29.993Z,18.00
2022-09-11T01:11:57.909Z,18.25
2022-09-11T01:14:25.479Z,12.75
2022-09-11T01:16:53.407Z,18.50
2022-09-11T01:19:20.975Z,17.25
2022-09-11T01:21:52.490Z,16.50
2022-09-11T01:24:20.072Z,19.00
2022-09-11T01:26:47.649Z,15.50
2022-09-11T01:29:16.176Z,15.75
2022-09-11T01:31:45.997Z,18.75
2022-09-11T01:34:13.719Z,23.75
2022-09-11T01:36:41.460Z,7.00
2022-09-11T01:39:09.836Z,15.50
2022-09-11T01:41:37.408Z,20.00
2022-09-11T01:44:05.081Z,21.00
2022-09-11T01:46:34.886Z,25.50
2022-09-11T01:49:02.524Z,22.00
2022-09-11T01:51:30.076Z,19.25
2022-09-11T01:53:59.488Z,22.25
2022-09-11T01:56:27.159Z,21.00
2022-09-11T01:58:56.213Z,19.00
2022-09-11T02:01:23.899Z,18.50
2022-09-11T02:03:52.511Z,22.00
2022-09-11T02:06:20.117Z,26.00
2022-09-11T02:08:49.310Z,19.25
2022-09-11T02:11:16.965Z,22.00
2022-09-11T02:13:46.989Z,20.75
2022-09-11T02:16:14.720Z,19.75
2022-09-11T02:18:42.396Z,18.50
2022-09-11T02:21:10.409Z,24.00
2022-09-11T02:23:40.030Z,26.00
2022-09-11T02:26:07.695Z,18.00
2022-09-11T02:28:35.523Z,14.00
2022-09-11T02:31:03.639Z,17.50
2022-09-11T02:33:32.637Z,17.00
2022-09-11T02:36:00.296Z,11.00
2022-09-11T02:38:27.935Z,22.50
2022-09-11T02:40:55.597Z,18.00
2022-09-11T02:43:23.884Z,24.25
2022-09-11T02:45:54.476Z,25.50
2022-09-11T02:48:22.288Z,29.00
2022-09-11T02:50:49.868Z,26.00
2022-09-11T02:53:17.783Z,13.50
2022-09-11T02:55:45.361Z,27.00
2022-09-11T02:58:13.350Z,28.75
2022-09-11T03:00:41.131Z,14.25
2022-09-11T03:03:10.141Z,29.75
2022-09-11T03:05:40.389Z,28.50
2022-09-11T03:08:08.390Z,27.75
2022-09-11T03:10:35.961Z,24.00
2022-09-11T03:13:03.942Z,25.50
2022-09-11T03:15:31.670Z,30.75
2022-09-11T03:17:59.293Z,32.00
2022-09-11T03:20:27.043Z,31.50
2022-09-11T03:22:55.205Z,18.00
2022-09-11T03:25:23.842Z,21.25
2022-09-11T03:27:51.758Z,19.50
2022-09-11T03:30:19.355Z,24.25
2022-09-11T03:32:48.248Z,28.50
2022-09-11T03:35:16.763Z,27.25
2022-09-11T03:37:44.497Z,27.50
2022-09-11T03:40:12.354Z,28.00
2022-09-11T03:42:41.402Z,33.25
2022-09-11T03:45:09.073Z,23.00
2022-09-11T03:47:37.538Z,20.25
2022-09-11T03:50:05.234Z,25.75
2022-09-11T03:52:33.160Z,31.00
2022-09-11T03:55:01.188Z,25.25
2022-09-11T03:57:28.819Z,28.50
2022-09-11T03:59:57.151Z,31.50
2022-09-11T04:02:25.101Z,23.00
2022-09-11T04:04:52.759Z,36.25
2022-09-11T04:07:20.964Z,30.00
2022-09-11T04:09:48.581Z,40.00
2022-09-11T04:12:17.497Z,30.00
2022-09-11T04:14:45.193Z,37.75
2022-09-11T04:17:12.777Z,24.75
2022-09-11T04:19:40.511Z,32.25
2022-09-11T04:22:10.544Z,27.50
2022-09-11T04:24:38.133Z,37.50
2022-09-11T04:27:05.820Z,32.00
2022-09-11T04:29:33.869Z,30.75
2022-09-11T04:32:02.283Z,31.50
2022-09-11T04:34:29.979Z,38.25
2022-09-11T04:36:57.699Z,27.50
2022-09-11T04:39:25.339Z,24.67
2022-09-11T04:41:55.519Z,27.67
2022-09-11T04:44:24.352Z,26.00
2022-09-11T04:46:51.939Z,27.75
2022-09-11T04:49:19.614Z,36.50
2022-09-11T04:51:47.284Z,40.00
2022-09-11T04:54:14.866Z,30.75
2022-09-11T04:56:42.541Z,35.75
2022-09-11T04:59:13.471Z,38.25
2022-09-11T05:01:41.101Z,29.25
2022-09-11T05:04:09.696Z,22.75
2022-09-11T05:06:38.073Z,28.25
2022-09-11T05:09:06.091Z,33.00
2022-09-11T05:11:33.742Z,28.75
2022-09-11T05:14:01.677Z,36.25
2022-09-11T05:16:29.631Z,39.00
2022-09-11T05:18:57.307Z,35.50
2022-09-11T05:21:25.126Z,29.50
2022-09-11T05:23:52.771Z,46.50
2022-09-11T05:26:20.535Z,21.50
2022-09-11T05:28:48.140Z,37.50
2022-09-11T05:31:15.868Z,31.50
2022-09-11T05:33:44.526Z,30.75
2022-09-11T05:36:12.281Z,41.00
2022-09-11T05:38:40.276Z,30.00
2022-09-11T05:41:07.949Z,23.50
2022-09-11T05:43:35.988Z,44.50
2022-09-11T05:46:03.683Z,24.50
2022-09-11T05:48:31.361Z,39.00
2022-09-11T05:50:59.749Z,36.50
2022-09-11T05:53:27.790Z,35.50
2022-09-11T05:55:55.417Z,37.25
2022-09-11T05:58:22.982Z,32.75
2022-09-11T06:00:50.698Z,43.75
2022-09-11T06:03:18.968Z,39.25
2022-09-11T06:05:46.663Z,29.25
2022-09-11T06:08:14.374Z,36.50
2022-09-11T06:10:42.017Z,17.50
2022-09-11T06:13:09.945Z,31.00
2022-09-11T06:15:46.673Z,35.00
2022-09-11T06:18:14.775Z,32.75
2022-09-11T06:20:42.668Z,31.50
2022-09-11T06:23:10.651Z,35.25
2022-09-11T06:25:38.438Z,36.75
2022-09-11T06:28:06.185Z,34.75
2022-09-11T06:30:33.778Z,37.75
2022-09-11T06:33:01.802Z,35.50
2022-09-11T06:35:30.186Z,37.25
2022-09-11T06:37:57.770Z,28.75
2022-09-11T06:40:25.543Z,29.00
2022-09-11T06:42:54.375Z,35.75
2022-09-11T06:45:22.141Z,12.25
2022-09-11T06:47:49.714Z,24.50
2022-09-11T06:50:17.416Z,37.75
2022-09-11T06:52:46.065Z,27.75
2022-09-11T06:55:14.700Z,28.00
2022-09-11T06:57:42.710Z,32.50
2022-09-11T07:00:10.445Z,40.00
2022-09-11T07:02:38.876Z,41.00
2022-09-11T07:05:06.530Z,27.75
2022-09-11T07:07:34.827Z,33.25
2022-09-11T07:10:05.277Z,35.75
2022-09-11T07:12:33.280Z,37.00
2022-09-11T07:15:00.958Z,23.50
2022-09-11T07:17:28.593Z,25.75
2022-09-11T07:19:56.323Z,30.25
2022-09-11T07:22:24.223Z,32.00
2022-09-11T07:24:55.360Z,29.00
2022-09-11T07:27:23.075Z,34.50
2022-09-11T07:29:50.788Z,27.50
2022-09-11T07:32:18.709Z,31.50
2022-09-11T07:34:47.707Z,24.75
2022-09-11T07:37:15.520Z,31.25
2022-09-11T07:39:43.205Z,28.25
2022-09-11T07:42:12.243Z,23.00
2022-09-11T07:44:39.857Z,21.00
2022-09-11T07:47:07.555Z,32.00
2022-09-11T07:49:35.135Z,24.00
2022-09-11T07:52:03.843Z,32.50
2022-09-11T07:54:31.513Z,27.00
2022-09-11T07:56:59.230Z,30.25
2022-09-11T07:59:28.065Z,25.60
2022-09-11T08:01:56.754Z,17.75
2022-09-11T08:04:24.776Z,32.00
2022-09-11T08:06:52.420Z,40.25
2022-09-11T08:09:20.532Z,25.20
2022-09-11T08:11:48.907Z,33.50
2022-09-11T08:14:17.793Z,34.00
2022-09-11T08:16:45.565Z,28.00
2022-09-11T08:19:13.243Z,25.60
2022-09-11T08:21:42.198Z,34.80
2022-09-11T08:24:09.831Z,41.75
2022-09-11T08:26:37.463Z,28.40
2022-09-11T08:29:05.335Z,19.00
2022-09-11T08:31:33.892Z,29.00
2022-09-11T08:34:01.869Z,38.00
2022-09-11T08:36:29.815Z,16.00
2022-09-11T08:38:57.421Z,30.20
2022-09-11T08:41:25.101Z,21.20
2022-09-11T08:43:53.157Z,32.60
2022-09-11T08:46:20.884Z,28.00
2022-09-11T08:48:48.684Z,30.60
2022-09-11T08:51:16.343Z,31.20
2022-09-11T08:53:45.852Z,27.80
2022-09-11T08:56:13.715Z,25.60
2022-09-11T08:58:41.325Z,28.00
2022-09-11T09:01:09.086Z,34.40
2022-09-11T09:03:37.053Z,35.20
2022-09-11T09:06:04.702Z,39.00
2022-09-11T09:08:35.442Z,39.50
2022-09-11T09:11:03.141Z,37.80
2022-09-11T09:13:31.603Z,38.60
2022-09-11T09:15:59.231Z,35.60
2022-09-11T09:18:26.937Z,33.00
2022-09-11T09:20:54.548Z,40.00
2022-09-11T09:23:22.551Z,37.60
2022-09-11T09:25:52.879Z,33.60
2022-09-11T09:28:20.562Z,36.40
2022-09-11T09:30:48.306Z,35.00
2022-09-11T09:33:16.531Z,42.00
2022-09-11T09:35:44.365Z,33.80
2022-09-11T09:38:11.959Z,30.40
2022-09-11T09:40:39.588Z,38.80
2022-09-11T09:43:07.558Z,33.00
2022-09-11T09:45:37.733Z,27.00
2022-09-11T09:48:05.970Z,29.60
2022-09-11T09:50:33.725Z,33.00
2022-09-11T09:53:01.477Z,35.40
2022-09-11T09:55:29.167Z,40.40
2022-09-11T09:57:56.997Z,33.40
2022-09-11T10:00:24.721Z,27.20
2022-09-11T10:02:55.241Z,27.00
2022-09-11T10:05:22.871Z,29.40
2022-09-11T10:07:50.564Z,31.80
2022-09-11T10:10:18.412Z,30.40
2022-09-11T10:12:46.050Z,24.00
2022-09-11T10:15:13.747Z,24.20
2022-09-11T10:17:41.352Z,18.40
2022-09-11T10:20:09.161Z,24.40
2022-09-11T10:22:36.807Z,23.40
2022-09-11T10:25:04.581Z,25.20
2022-09-11T10:27:32.854Z,25.80
2022-09-11T10:30:00.762Z,24.00
2022-09-11T10:32:29.123Z,22.80
2022-09-11T10:34:56.860Z,25.80
2022-09-11T10:37:24.832Z,25.20
2022-09-11T10:39:52.604Z,25.80
2022-09-11T10:42:23.256Z,25.40
2022-09-11T10:44:50.923Z,24.80
2022-09-11T10:47:18.698Z,24.20
2022-09-11T10:49:47.358Z,24.00
2022-09-11T10:52:15.313Z,26.60
2022-09-11T10:54:44.681Z,26.80
2022-09-11T10:57:13.483Z,25.00
2022-09-11T10:59:41.662Z,19.40
2022-09-11T11:02:10.579Z,29.00
2022-09-11T11:04:38.304Z,19.60
2022-09-11T11:07:05.947Z,29.00
2022-09-11T11:09:33.678Z,23.60
2022-09-11T11:12:01.654Z,20.00
2022-09-11T11:14:29.488Z,19.20
2022-09-11T11:16:57.153Z,26.40
2022-09-11T11:19:24.883Z,26.20
2022-09-11T11:21:52.590Z,21.20
2022-09-11T11:24:21.649Z,18.40
2022-09-11T11:26:49.393Z,20.00
2022-09-11T11:29:17.098Z,27.80
2022-09-11T11:31:44.859Z,22.60
2022-09-11T11:34:12.850Z,21.00
2022-09-11T11:36:40.629Z,24.60
2022-09-11T11:39:08.934Z,32.60
2022-09-11T11:41:36.698Z,27.20
2022-09-11T11:44:04.657Z,29.40
2022-09-11T11:46:33.724Z,26.00
2022-09-11T11:49:01.308Z,29.00
2022-09-11T11:51:29.028Z,24.20
2022-09-11T11:53:57.044Z,21.20
2022-09-11T11:56:24.740Z,28.20
2022-09-11T11:58:52.455Z,28.80
2022-09-11T12:01:20.450Z,29.60
2022-09-11T12:03:48.601Z,28.60
2022-09-11T12:06:16.443Z,16.00
2022-09-11T12:08:44.863Z,29.80
2022-09-11T12:11:13.050Z,32.40
2022-09-11T12:13:41.049Z,26.20
2022-09-11T12:16:11.373Z,37.00
2022-09-11T12:18:39.286Z,25.80
2022-09-11T12:21:07.299Z,21.60
2022-09-11T12:23:35.005Z,29.80
2022-09-11T12:26:02.756Z,30.40
2022-09-11T12:28:30.498Z,21.80
2022-09-11T12:30:58.302Z,29.20
2022-09-11T12:33:26.292Z,27.60
2022-09-11T12:35:54.194Z,30.40
2022-09-11T12:38:21.932Z,21.60
2022-09-11T12:40:49.789Z,26.40
2022-09-11T12:43:18.996Z,20.40
2022-09-11T12:45:48.561Z,21.20
2022-09-11T12:48:16.704Z,18.60
2022-09-11T12:50:44.391Z,25.80
2022-09-11T12:53:13.278Z,19.00
2022-09-11T12:55:41.037Z,26.20
2022-09-11T12:58:08.656Z,21.80
2022-09-11T13:00:36.451Z,23.00
2022-09-11T13:03:04.446Z,21.40
2022-09-11T13:05:34.767Z,18.40
2022-09-11T13:08:04.450Z,26.60
2022-09-11T13:10:33.591Z,19.80
2022-09-11T13:13:02.772Z,29.20
2022-09-11T13:15:30.522Z,25.80
2022-09-11T13:17:58.207Z,21.20
2022-09-11T13:20:25.800Z,23.40
2022-09-11T13:23:04.083Z,22.80
2022-09-11T13:25:32.180Z,18.60
2022-09-11T13:27:59.800Z,17.60
2022-09-11T13:30:27.750Z,24.40
2022-09-11T13:33:14.506Z,18.60
2022-09-11T13:35:42.199Z,26.40
2022-09-11T13:38:10.203Z,15.40
2022-09-11T13:40:37.900Z,23.20
2022-09-11T13:43:05.661Z,18.00
2022-09-11T13:48:56.496Z,15.60
2022-09-11T13:51:24.246Z,21.40
2022-09-11T13:53:51.996Z,21.80
2022-09-11T13:56:21.155Z,24.00
2022-09-11T13:58:53.336Z,23.60
2022-09-11T14:01:21.480Z,19.60
2022-09-11T14:03:58.738Z,18.40
2022-09-11T14:06:26.479Z,17.40
2022-09-11T14:08:54.525Z,19.00
2022-09-11T14:11:22.293Z,13.20
2022-09-11T14:13:50.063Z,19.20
2022-09-11T14:16:17.935Z,17.60
2022-09-11T14:18:46.411Z,16.40
2022-09-11T14:21:14.521Z,16.20
2022-09-11T14:23:43.173Z,17.00
2022-09-11T14:26:10.969Z,17.60
2022-09-11T14:28:38.649Z,14.00
2022-09-11T14:31:06.911Z,12.60
2022-09-11T14:33:47.432Z,14.60
2022-09-11T14:36:22.109Z,15.00
2022-09-11T14:38:50.340Z,11.80
2022-09-11T14:41:17.897Z,15.40
2022-09-11T14:43:48.914Z,12.60
2022-09-11T14:46:17.119Z,12.20
2022-09-11T14:48:45.036Z,14.60
2022-09-11T14:51:13.688Z,13.60
2022-09-11T14:53:43.649Z,14.00
2022-09-11T14:56:11.726Z,8.40
2022-09-11T14:58:39.390Z,11.60
2022-09-11T15:01:07.323Z,15.80
2022-09-11T15:03:35.098Z,16.60
2022-09-11T15:06:02.844Z,16.00
2022-09-11T15:08:30.442Z,13.40
2022-09-11T15:10:57.963Z,12.00
2022-09-11T15:13:26.110Z,11.40
2022-09-11T15:15:53.758Z,11.00
2022-09-11T15:18:22.053Z,10.00
2022-09-11T15:20:49.670Z,13.80
2022-09-11T15:23:17.726Z,10.40
2022-09-11T15:25:45.557Z,7.80
2022-09-11T15:28:13.269Z,6.40
2022-09-11T15:30:41.736Z,9.40
2022-09-11T15:33:09.271Z,10.20
2022-09-11T15:35:36.935Z,12.00
2022-09-11T15:38:05.667Z,13.20
2022-09-11T15:40:33.763Z,12.60
2022-09-11T15:43:01.351Z,9.80
2022-09-11T15:45:28.966Z,8.00
2022-09-11T15:47:56.536Z,10.80
2022-09-11T15:50:28.853Z,9.80
2022-09-11T15:52:56.451Z,8.60
2022-09-11T15:55:25.281Z,9.20
2022-09-11T15:57:52.966Z,11.20
2022-09-11T16:00:20.502Z,9.80
2022-09-11T16:02:49.558Z,9.00
2022-09-11T16:05:17.116Z,8.80
2022-09-11T16:07:44.718Z,10.00
2022-09-11T16:10:12.271Z,10.40
2022-09-11T16:12:39.877Z,13.00
2022-09-11T16:15:07.745Z,9.00
2022-09-11T16:17:35.379Z,8.80
2022-09-11T16:20:03.060Z,11.80
2022-09-11T16:22:32.017Z,9.00
2022-09-11T16:25:00.361Z,6.80
2022-09-11T16:27:28.298Z,9.20
2022-09-11T16:32:43.694Z,9.00
2022-09-11T16:35:13.449Z,6.00
2022-09-11T16:37:41.589Z,9.40
2022-09-11T16:40:09.773Z,9.60
2022-09-11T16:42:37.611Z,8.00
2022-09-11T16:45:05.521Z,10.80
2022-09-11T16:47:33.569Z,8.60
2022-09-11T16:50:07.330Z,8.40
2022-09-11T16:52:35.904Z,9.40
2022-09-11T16:55:03.504Z,10.60
2022-09-11T16:57:31.071Z,9.00
2022-09-11T16:59:58.837Z,11.20
2022-09-11T17:02:26.946Z,12.00
2022-09-11T17:04:54.542Z,10.20
2022-09-11T17:07:22.198Z,8.60
2022-09-11T17:09:49.776Z,12.20
2022-09-11T17:12:17.796Z,9.00
2022-09-11T17:14:45.718Z,7.20
2022-09-11T17:17:13.554Z,6.60
2022-09-11T17:19:41.136Z,10.00
2022-09-11T17:22:10.707Z,11.00
2022-09-11T17:24:38.911Z,9.60
2022-09-11T17:27:06.579Z,10.20
2022-09-11T17:29:35.239Z,8.60
2022-09-11T17:32:24.124Z,10.00
2022-09-11T17:34:51.161Z,10.40
2022-09-11T17:37:18.787Z,9.20
2022-09-11T17:39:46.391Z,10.20
2022-09-11T17:42:13.975Z,8.80
2022-09-11T17:44:42.470Z,10.40
2022-09-11T17:47:10.000Z,8.80
2022-09-11T17:49:38.800Z,10.40
2022-09-11T17:52:07.170Z,13.00
2022-09-11T17:54:34.888Z,9.80
2022-09-11T17:57:02.468Z,8.80
2022-09-11T17:59:30.099Z,10.20
2022-09-11T18:01:59.162Z,11.20
2022-09-11T18:04:27.133Z,11.00
2022-09-11T18:06:55.203Z,13.20
2022-09-11T18:09:22.825Z,9.80
2022-09-11T18:11:51.063Z,7.00
2022-09-11T18:14:18.629Z,9.60
2022-09-11T18:16:47.340Z,11.00
2022-09-11T18:19:15.002Z,8.40
2022-09-11T18:21:45.558Z,8.40
2022-09-11T18:24:19.776Z,11.20
2022-09-11T18:26:47.663Z,12.80
2022-09-11T18:29:16.732Z,14.60
2022-09-11T18:31:44.342Z,17.80
2022-09-11T18:34:11.971Z,12.40
2022-09-11T18:36:39.532Z,12.20
2022-09-11T18:39:07.255Z,12.60
2022-09-11T18:41:35.063Z,14.20
2022-09-11T18:44:04.116Z,13.20
2022-09-11T18:46:32.183Z,15.00
2022-09-11T18:49:00.308Z,18.40
2022-09-11T18:51:28.590Z,9.60
2022-09-11T18:53:56.651Z,10.40
2022-09-11T18:56:24.171Z,9.60
2022-09-11T18:58:52.462Z,10.20
2022-09-11T19:01:20.503Z,10.25
2022-09-11T19:03:48.289Z,12.00
2022-09-11T19:06:15.803Z,9.00
2022-09-11T19:08:43.392Z,12.50
2022-09-11T19:11:10.977Z,9.40
2022-09-11T19:13:38.733Z,11.20
2022-09-11T19:16:07.249Z,11.20
2022-09-11T19:18:34.772Z,13.20
2022-09-11T19:21:03.896Z,12.50
2022-09-11T19:23:31.620Z,3.00
2022-09-11T19:25:59.441Z,13.50
2022-09-11T19:28:28.635Z,10.00
2022-09-11T19:30:57.249Z,9.00
2022-09-11T19:33:24.866Z,10.00
2022-09-11T19:35:52.421Z,8.00
2022-09-11T19:38:21.238Z,10.00
2022-09-11T19:40:48.982Z,10.50
2022-09-11T19:43:17.536Z,10.00
2022-09-11T19:45:45.938Z,13.00
2022-09-11T19:48:13.464Z,9.50
2022-09-11T19:50:41.025Z,10.00
2022-09-11T19:53:08.616Z,8.00
2022-09-11T19:55:36.416Z,12.25
2022-09-11T19:58:04.770Z,9.00
2022-09-11T20:00:32.754Z,10.00
2022-09-11T20:03:00.486Z,9.00
2022-09-11T20:05:28.033Z,8.00
2022-09-11T20:07:56.116Z,10.50
2022-09-11T20:10:24.410Z,10.80
2022-09-11T20:12:51.981Z,12.25
2022-09-11T20:15:19.510Z,13.00
2022-09-11T20:17:47.180Z,12.00
2022-09-11T20:20:14.834Z,11.00
2022-09-11T20:22:42.894Z,12.50
2022-09-11T20:25:10.348Z,9.50
2022-09-11T20:27:38.098Z,11.00
2022-09-11T20:30:05.937Z,12.25
2022-09-11T20:32:33.495Z,11.50
2022-09-11T20:35:00.987Z,10.50
2022-09-11T20:37:28.899Z,11.00
2022-09-11T20:39:56.486Z,7.50
2022-09-11T20:42:24.018Z,10.75
2022-09-11T20:44:52.424Z,8.75
2022-09-11T20:47:19.936Z,6.50
2022-09-11T20:49:47.427Z,8.50
2022-09-11T20:52:14.943Z,9.00
2022-09-11T20:54:42.459Z,11.50
2022-09-11T20:57:10.217Z,9.25
2022-09-11T20:59:37.871Z,7.50
2022-09-11T21:02:05.436Z,9.25
2022-09-11T21:04:33.032Z,8.50
2022-09-11T21:07:00.730Z,11.50
2022-09-11T21:09:28.249Z,8.50
2022-09-11T21:11:55.711Z,9.50
2022-09-11T21:14:23.225Z,8.00
2022-09-11T21:16:50.721Z,4.25
2022-09-11T21:19:18.410Z,9.75
2022-09-11T21:21:46.151Z,9.25
2022-09-11T21:24:13.659Z,8.00
2022-09-11T21:26:41.219Z,10.50
2022-09-11T21:29:09.051Z,7.00
2022-09-11T21:31:36.675Z,9.00
2022-09-11T21:34:04.210Z,9.25
2022-09-11T21:36:32.417Z,11.50
2022-09-11T21:38:59.989Z,8.00
2022-09-11T21:41:27.454Z,9.00
2022-09-11T21:43:54.977Z,11.00
2022-09-11T21:46:22.482Z,9.00
2022-09-11T21:48:49.991Z,10.00
2022-09-11T21:51:17.789Z,6.50
2022-09-11T21:53:45.374Z,7.00
2022-09-11T21:56:12.938Z,4.00
2022-09-11T21:58:40.472Z,11.50
2022-09-11T22:01:08.662Z,9.25
2022-09-11T22:03:36.241Z,9.50
2022-09-11T22:06:03.786Z,6.25
2022-09-11T22:08:31.404Z,9.75
2022-09-11T22:10:58.882Z,8.00
2022-09-11T22:13:26.700Z,12.00
2022-09-11T22:15:54.219Z,8.50
2022-09-11T22:18:21.725Z,7.50
2022-09-11T22:20:49.239Z,6.25
2022-09-11T22:23:16.914Z,7.25
2022-09-11T22:25:44.389Z,1.50
2022-09-11T22:28:12.128Z,6.00
2022-09-11T22:30:39.589Z,10.00
2022-09-11T22:33:07.083Z,10.00
2022-09-11T22:35:34.966Z,8.25
2022-09-11T22:38:02.460Z,9.00
2022-09-11T22:40:29.962Z,6.75
2022-09-11T22:42:57.466Z,6.00
2022-09-11T22:45:24.972Z,7.00
2022-09-11T22:47:52.464Z,9.00
2022-09-11T22:50:19.971Z,7.25
2022-09-11T22:52:48.496Z,12.00
2022-09-11T22:55:16.314Z,8.00
2022-09-11T22:57:43.841Z,8.25
2022-09-11T23:00:11.603Z,9.00
2022-09-11T23:02:39.072Z,7.50
2022-09-11T23:05:24.193Z,10.00
2022-09-11T23:07:51.752Z,9.00
2022-09-11T23:10:23.748Z,11.00
2022-09-11T23:12:51.440Z,9.50
2022-09-11T23:15:19.351Z,10.25
2022-09-11T23:17:46.974Z,10.25
2022-09-11T23:20:14.460Z,12.00
2022-09-11T23:22:42.107Z,6.50
2022-09-11T23:25:11.188Z,9.00
2022-09-11T23:27:38.716Z,8.50
2022-09-11T23:30:06.167Z,8.00
2022-09-11T23:32:33.776Z,7.75
2022-09-11T23:35:01.569Z,7.00
2022-09-11T23:37:29.137Z,6.50
2022-09-11T23:39:56.629Z,7.50
2022-09-11T23:42:24.168Z,7.00
2022-09-11T23:44:51.657Z,4.50
2022-09-11T23:47:19.118Z,9.00
2022-09-11T23:49:48.037Z,9.75
2022-09-11T23:52:15.530Z,9.00
2022-09-11T23:54:42.986Z,5.00
2022-09-11T23:57:10.555Z,4.00
2022-09-11T23:59:38.320Z,5.00
